Time;durP1;ratioP1;P1;durP2;ratioP2;P2;SDS_P1;SDS_P2;PMS_P1;PMS_P2;Temp;Humidity;BMP_temperature;BMP_pressure;BME280_temperature;BME280_humidity;BME280_pressure;Samples;Min_cycle;Max_cycle;Signal;HPM_P1;HPM_P2
2022/02/19 00:21:55;;;;;;;4.40;4.00;;;;;;;;;;5176940;27;20072;-62
2022/02/19 00:24:21;;;;;;;4.68;4.28;;;;;;;;;;5179498;27;20167;-62
2022/02/19 00:26:47;;;;;;;4.97;3.95;;;;;;;;;;5179632;27;20171;-62
2022/02/19 00:29:13;;;;;;;5.43;4.32;;;;;;;;;;5179760;27;20090;-69
2022/02/19 00:31:40;;;;;;;6.18;4.78;;;;;;;;;;5179840;27;20152;-69
2022/02/19 00:34:06;;;;;;;5.57;4.12;;;;;;;;;;5160729;27;20176;-69
2022/02/19 00:36:32;;;;;;;4.78;3.90;;;;;;;;;;5179555;27;20068;-69
2022/02/19 00:38:58;;;;;;;5.72;4.43;;;;;;;;;;5160738;27;20421;-69
2022/02/19 00:41:24;;;;;;;4.75;3.97;;;;;;;;;;5142944;27;20185;-69
2022/02/19 00:43:51;;;;;;;4.87;4.37;;;;;;;;;;5179788;27;20252;-69
2022/02/19 00:46:17;;;;;;;6.43;4.07;;;;;;;;;;5160634;27;20089;-69
2022/02/19 00:48:44;;;;;;;5.28;4.00;;;;;;;;;;5179784;27;20165;-68
2022/02/19 00:51:10;;;;;;;4.90;4.40;;;;;;;;;;5143247;27;20098;-63
2022/02/19 00:53:36;;;;;;;6.18;4.28;;;;;;;;;;5179592;27;20520;-63
2022/02/19 00:56:02;;;;;;;4.18;3.78;;;;;;;;;;5179261;27;20433;-63
2022/02/19 00:58:28;;;;;;;6.95;4.75;;;;;;;;;;5179658;27;20089;-63
2022/02/19 01:00:54;;;;;;;5.50;4.40;;;;;;;;;;5179564;27;20074;-63
2022/02/19 01:03:20;;;;;;;4.47;4.07;;;;;;;;;;5179709;27;20089;-63
2022/02/19 01:05:46;;;;;;;5.07;4.37;;;;;;;;;;5179650;27;20074;-63
2022/02/19 01:08:12;;;;;;;5.30;4.10;;;;;;;;;;5179578;27;20501;-63
2022/02/19 01:10:39;;;;;;;4.72;4.22;;;;;;;;;;5179728;27;20529;-63
2022/02/19 01:13:05;;;;;;;5.28;4.62;;;;;;;;;;5179405;27;20090;-63
2022/02/19 01:15:31;;;;;;;4.90;4.22;;;;;;;;;;5179630;27;20101;-64
2022/02/19 01:17:57;;;;;;;4.97;4.47;;;;;;;;;;5179375;27;20081;-63
2022/02/19 01:20:23;;;;;;;5.35;4.80;;;;;;;;;;5179463;27;20521;-63
2022/02/19 01:22:49;;;;;;;5.25;3.97;;;;;;;;;;5179514;27;20080;-63
2022/02/19 01:25:16;;;;;;;5.62;4.03;;;;;;;;;;5179501;27;20081;-63
2022/02/19 01:27:42;;;;;;;7.65;5.43;;;;;;;;;;5179502;27;20069;-63
2022/02/19 01:30:08;;;;;;;6.18;4.57;;;;;;;;;;5179393;27;20152;-63
2022/02/19 01:32:35;;;;;;;5.62;4.20;;;;;;;;;;5179366;27;20086;-63
2022/02/19 01:35:01;;;;;;;4.62;4.07;;;;;;;;;;5160401;27;20096;-63
2022/02/19 01:37:27;;;;;;;6.10;4.68;;;;;;;;;;5179334;27;20086;-64
2022/02/19 01:39:53;;;;;;;6.50;4.50;;;;;;;;;;5179465;27;20120;-63
2022/02/19 01:42:19;;;;;;;5.37;4.75;;;;;;;;;;5179404;27;20087;-63
2022/02/19 01:44:47;;;;;;;8.43;5.00;;;;;;;;;;5160162;27;20576;-64
2022/02/19 01:47:15;;;;;;;6.07;4.43;;;;;;;;;;5179302;27;20061;-64
2022/02/19 01:49:41;;;;;;;5.37;4.87;;;;;;;;;;5179408;27;20086;-63
2022/02/19 01:52:07;;;;;;;7.07;5.22;;;;;;;;;;5179243;27;20101;-64
2022/02/19 01:54:33;;;;;;;5.80;4.97;;;;;;;;;;5179187;27;20167;-63
2022/02/19 01:57:00;;;;;;;5.85;5.25;;;;;;;;;;5160271;27;20179;-63
2022/02/19 01:59:26;;;;;;;5.82;5.22;;;;;;;;;;5179303;27;20078;-63
2022/02/19 02:01:52;;;;;;;6.90;5.28;;;;;;;;;;5179089;27;20112;-63
2022/02/19 02:04:18;;;;;;;5.65;4.85;;;;;;;;;;5179312;27;20093;-63
2022/02/19 02:06:46;;;;;;;5.47;4.82;;;;;;;;;;5180193;27;20529;-63
2022/02/19 02:09:15;;;;;;;5.18;4.68;;;;;;;;;;5145085;27;20066;-63
2022/02/19 02:11:41;;;;;;;6.78;4.57;;;;;;;;;;5180470;27;20088;-63
2022/02/19 02:14:08;;;;;;;6.60;4.62;;;;;;;;;;5180742;27;20082;-63
2022/02/19 02:16:42;;;;;;;5.28;4.68;;;;;;;;;;5180562;27;20106;-63
2022/02/19 02:19:08;;;;;;;5.37;4.60;;;;;;;;;;5144426;27;20094;-63
2022/02/19 02:21:37;;;;;;;5.68;4.72;;;;;;;;;;5180426;27;20073;-62
2022/02/19 02:24:04;;;;;;;4.82;4.32;;;;;;;;;;5180547;27;20073;-63
2022/02/19 02:26:30;;;;;;;7.60;4.65;;;;;;;;;;5180772;27;20488;-63
2022/02/19 02:28:56;;;;;;;5.37;4.25;;;;;;;;;;5180639;27;20075;-63
2022/02/19 02:31:23;;;;;;;5.75;4.30;;;;;;;;;;5161433;27;20109;-63
2022/02/19 02:33:50;;;;;;;5.93;5.32;;;;;;;;;;5144359;27;20487;-63
2022/02/19 02:36:17;;;;;;;5.20;4.70;;;;;;;;;;5180636;27;20441;-63
2022/02/19 02:38:44;;;;;;;5.85;5.22;;;;;;;;;;5180524;27;20085;-63
2022/02/19 02:41:10;;;;;;;8.10;4.82;;;;;;;;;;5180467;27;20172;-63
2022/02/19 02:43:36;;;;;;;6.00;4.82;;;;;;;;;;5180483;27;20054;-63
2022/02/19 02:46:02;;;;;;;7.70;5.12;;;;;;;;;;5180417;27;20468;-63
2022/02/19 02:48:28;;;;;;;7.72;5.03;;;;;;;;;;5180430;27;20062;-64
2022/02/19 02:50:55;;;;;;;5.57;4.80;;;;;;;;;;5180252;27;20144;-63
2022/02/19 02:53:24;;;;;;;8.00;5.37;;;;;;;;;;5180385;27;20093;-63
2022/02/19 02:55:50;;;;;;;6.22;5.00;;;;;;;;;;5161031;27;20169;-63
2022/02/19 02:58:17;;;;;;;6.90;4.70;;;;;;;;;;5180236;27;20067;-63
2022/02/19 03:00:43;;;;;;;6.12;4.75;;;;;;;;;;5180484;27;20138;-63
2022/02/19 03:03:09;;;;;;;7.35;4.65;;;;;;;;;;5180358;27;20066;-63
2022/02/19 03:05:35;;;;;;;6.97;5.25;;;;;;;;;;5180470;27;20085;-63
2022/02/19 03:08:01;;;;;;;7.43;4.80;;;;;;;;;;5180305;27;20157;-64
2022/02/19 03:10:27;;;;;;;5.90;4.43;;;;;;;;;;5161668;27;20074;-64
2022/02/19 03:12:53;;;;;;;7.22;4.90;;;;;;;;;;5180175;27;20108;-63
2022/02/19 03:15:21;;;;;;;5.43;4.75;;;;;;;;;;5180355;27;20513;-63
2022/02/19 03:17:48;;;;;;;7.53;5.37;;;;;;;;;;5179919;27;20168;-64
2022/02/19 03:20:22;;;;;;;6.12;4.65;;;;;;;;;;5161127;27;20077;-64
2022/02/19 03:22:48;;;;;;;6.97;5.05;;;;;;;;;;5180063;27;20105;-64
2022/02/19 03:25:15;;;;;;;6.72;5.22;;;;;;;;;;5144212;27;20058;-63
2022/02/19 03:27:42;;;;;;;6.20;5.37;;;;;;;;;;5161327;27;20106;-62
2022/02/19 03:30:10;;;;;;;7.43;6.10;;;;;;;;;;5161130;27;20082;-62
2022/02/19 03:32:36;;;;;;;7.72;5.43;;;;;;;;;;5160993;27;20451;-62
2022/02/19 03:35:03;;;;;;;7.70;5.87;;;;;;;;;;5180178;27;20082;-62
2022/02/19 03:37:33;;;;;;;7.80;4.97;;;;;;;;;;5180034;27;20399;-62
2022/02/19 03:40:06;;;;;;;5.95;4.78;;;;;;;;;;5180250;27;20164;-61
2022/02/19 03:42:39;;;;;;;7.18;5.12;;;;;;;;;;5180282;27;20109;-62
2022/02/19 03:45:08;;;;;;;8.95;5.32;;;;;;;;;;5180102;27;20082;-61
2022/02/19 03:47:35;;;;;;;7.62;5.43;;;;;;;;;;5161274;27;20096;-62
2022/02/19 03:50:02;;;;;;;5.97;5.28;;;;;;;;;;5180125;27;20124;-62
2022/02/19 03:52:29;;;;;;;8.35;5.50;;;;;;;;;;5160609;27;20515;-63
2022/02/19 03:54:55;;;;;;;7.30;5.45;;;;;;;;;;5143672;27;20070;-62
2022/02/19 03:57:21;;;;;;;9.73;5.35;;;;;;;;;;5160811;27;20329;-63
2022/02/19 03:59:48;;;;;;;6.55;5.15;;;;;;;;;;5180082;27;20468;-61
2022/02/19 04:02:14;;;;;;;6.35;5.57;;;;;;;;;;5179910;27;20069;-69
2022/02/19 04:04:40;;;;;;;9.60;5.25;;;;;;;;;;5160741;27;20462;-69
2022/02/19 04:07:06;;;;;;;8.95;6.07;;;;;;;;;;5179918;27;20062;-73
2022/02/19 04:09:32;;;;;;;10.02;5.60;;;;;;;;;;5160871;27;20160;-72
2022/02/19 04:11:58;;;;;;;7.75;5.37;;;;;;;;;;5179952;27;20058;-69
2022/02/19 04:14:24;;;;;;;8.25;5.95;;;;;;;;;;5179832;27;20065;-68
2022/02/19 04:16:50;;;;;;;7.75;5.55;;;;;;;;;;5179829;27;20409;-69
2022/02/19 04:19:16;;;;;;;7.37;5.68;;;;;;;;;;5179939;27;20894;-67
2022/02/19 04:21:42;;;;;;;5.65;5.10;;;;;;;;;;5179763;27;20487;-67
2022/02/19 04:24:09;;;;;;;7.57;5.75;;;;;;;;;;5180034;27;20161;-68
2022/02/19 04:26:35;;;;;;;8.10;5.78;;;;;;;;;;5179981;27;20413;-67
2022/02/19 04:29:01;;;;;;;6.75;6.05;;;;;;;;;;5143569;27;20058;-66
2022/02/19 04:31:27;;;;;;;6.75;5.45;;;;;;;;;;5180332;27;20058;-69
2022/02/19 04:33:53;;;;;;;12.10;5.80;;;;;;;;;;5180145;27;20180;-68
2022/02/19 04:36:19;;;;;;;14.25;5.82;;;;;;;;;;5180147;27;20082;-67
2022/02/19 04:38:46;;;;;;;6.87;5.30;;;;;;;;;;5180037;27;20105;-67
2022/02/19 04:41:13;;;;;;;7.28;5.53;;;;;;;;;;5179684;27;20453;-66
2022/02/19 04:43:39;;;;;;;9.10;6.28;;;;;;;;;;5179697;27;20085;-68
2022/02/19 04:46:05;;;;;;;8.70;5.78;;;;;;;;;;5179519;27;20176;-67
2022/02/19 04:48:31;;;;;;;7.70;5.87;;;;;;;;;;5179627;27;20142;-68
2022/02/19 04:50:57;;;;;;;9.45;5.70;;;;;;;;;;5179516;27;20074;-68
2022/02/19 04:53:24;;;;;;;9.82;6.32;;;;;;;;;;5179438;27;20217;-70
2022/02/19 04:55:50;;;;;;;6.43;5.82;;;;;;;;;;5179558;27;20078;-70
2022/02/19 04:58:16;;;;;;;9.18;6.18;;;;;;;;;;5179630;27;20497;-70
2022/02/19 05:00:42;;;;;;;10.27;6.55;;;;;;;;;;5160683;27;20504;-71
2022/02/19 05:03:08;;;;;;;8.88;6.50;;;;;;;;;;5179485;27;20090;-71
2022/02/19 05:05:34;;;;;;;8.48;6.00;;;;;;;;;;5180040;27;20078;-70
2022/02/19 05:08:00;;;;;;;7.00;5.80;;;;;;;;;;5180494;27;20205;-68
2022/02/19 05:10:26;;;;;;;7.10;5.40;;;;;;;;;;5160231;27;20156;-67
2022/02/19 05:12:52;;;;;;;5.50;4.80;;;;;;;;;;5179460;27;20059;-67
2022/02/19 05:15:18;;;;;;;7.62;5.60;;;;;;;;;;5179651;27;20093;-68
2022/02/19 05:17:45;;;;;;;6.90;5.40;;;;;;;;;;5179381;27;20147;-70
2022/02/19 05:20:11;;;;;;;6.87;5.30;;;;;;;;;;5179384;27;20616;-69
2022/02/19 05:22:37;;;;;;;8.23;5.37;;;;;;;;;;5160234;27;20109;-66
2022/02/19 05:25:04;;;;;;;6.37;5.60;;;;;;;;;;5179500;27;20077;-67
2022/02/19 05:27:30;;;;;;;9.93;5.50;;;;;;;;;;5179307;27;20473;-66
2022/02/19 05:29:57;;;;;;;6.75;5.87;;;;;;;;;;5179345;27;20062;-66
2022/02/19 05:32:23;;;;;;;6.62;5.25;;;;;;;;;;5179205;27;20061;-68
2022/02/19 05:34:51;;;;;;;6.90;5.32;;;;;;;;;;5179270;27;20164;-69
2022/02/19 05:37:17;;;;;;;6.25;5.53;;;;;;;;;;5160548;27;20494;-69
2022/02/19 05:39:43;;;;;;;6.45;5.53;;;;;;;;;;5179486;27;20437;-69
2022/02/19 05:42:09;;;;;;;9.23;5.45;;;;;;;;;;5179544;27;20082;-69
2022/02/19 05:44:35;;;;;;;10.63;5.75;;;;;;;;;;5179701;27;20086;-69
2022/02/19 05:47:01;;;;;;;6.43;5.50;;;;;;;;;;5181563;27;20084;-70
2022/02/19 05:49:27;;;;;;;9.63;6.03;;;;;;;;;;5182470;27;20077;-68
2022/02/19 05:51:53;;;;;;;6.78;6.15;;;;;;;;;;5179875;27;20171;-66
2022/02/19 05:54:19;;;;;;;9.52;5.90;;;;;;;;;;5179575;27;20079;-67
2022/02/19 05:56:45;;;;;;;7.37;5.90;;;;;;;;;;5179181;27;20172;-68
2022/02/19 05:59:11;;;;;;;6.82;5.53;;;;;;;;;;5143084;27;20157;-70
2022/02/19 06:01:37;;;;;;;11.98;5.47;;;;;;;;;;5179128;27;20177;-70
2022/02/19 06:04:04;;;;;;;9.18;5.93;;;;;;;;;;5179087;27;20310;-74
2022/02/19 06:06:30;;;;;;;7.37;5.90;;;;;;;;;;5159784;27;20097;-73
2022/02/19 06:08:56;;;;;;;7.43;6.40;;;;;;;;;;5179262;27;20085;-71
2022/02/19 06:11:22;;;;;;;11.70;6.22;;;;;;;;;;5179364;27;20074;-69
2022/02/19 06:13:48;;;;;;;7.97;5.80;;;;;;;;;;5160565;27;20528;-69
2022/02/19 06:16:14;;;;;;;9.05;5.85;;;;;;;;;;5179141;27;20475;-69
2022/02/19 06:18:40;;;;;;;9.50;6.05;;;;;;;;;;5179121;27;20477;-75
2022/02/19 06:21:06;;;;;;;7.50;5.93;;;;;;;;;;5160075;27;20085;-74
2022/02/19 06:23:33;;;;;;;7.00;5.57;;;;;;;;;;5179181;27;20101;-73
2022/02/19 06:25:59;;;;;;;7.68;6.40;;;;;;;;;;5160463;27;20082;-77
2022/02/19 06:28:25;;;;;;;8.75;5.55;;;;;;;;;;5160016;27;20485;-78
2022/02/19 06:30:51;;;;;;;10.52;6.35;;;;;;;;;;5142916;27;20399;-77
2022/02/19 06:33:17;;;;;;;8.23;6.25;;;;;;;;;;5179136;27;20063;-75
2022/02/19 06:35:43;;;;;;;9.48;6.68;;;;;;;;;;5179280;27;20061;-75
2022/02/19 06:38:09;;;;;;;10.32;6.43;;;;;;;;;;5179408;27;20066;-76
2022/02/19 06:40:36;;;;;;;8.07;6.45;;;;;;;;;;5143337;27;20087;-77
2022/02/19 06:43:02;;;;;;;10.27;6.62;;;;;;;;;;5109112;27;20152;-79
2022/02/19 06:45:28;;;;;;;6.57;5.40;;;;;;;;;;5160286;27;20163;-80
2022/02/19 06:47:55;;;;;;;9.60;5.62;;;;;;;;;;5126655;27;20528;-73
2022/02/19 06:50:21;;;;;;;8.00;5.62;;;;;;;;;;5143617;27;20089;-78
2022/02/19 06:52:47;;;;;;;7.57;5.93;;;;;;;;;;5143785;27;20071;-80
2022/02/19 06:55:13;;;;;;;8.43;6.15;;;;;;;;;;5181481;27;20090;-81
2022/02/19 06:57:40;;;;;;;7.80;6.95;;;;;;;;;;5147484;27;20098;-83
2022/02/19 07:00:07;;;;;;;9.75;6.70;;;;;;;;;;5162580;27;20086;-80
2022/02/19 07:02:33;;;;;;;12.52;7.47;;;;;;;;;;5144801;27;20101;-78
2022/02/19 07:04:59;;;;;;;10.95;7.32;;;;;;;;;;5162407;27;20077;-77
2022/02/19 07:07:25;;;;;;;7.80;6.70;;;;;;;;;;5181485;27;20073;-78
2022/02/19 07:09:51;;;;;;;9.70;6.28;;;;;;;;;;5144454;27;20081;-81
2022/02/19 07:12:17;;;;;;;10.13;6.82;;;;;;;;;;5160611;27;20094;-76
2022/02/19 07:14:44;;;;;;;7.50;6.22;;;;;;;;;;5179955;27;20070;-85
2022/02/19 07:17:10;;;;;;;8.20;6.15;;;;;;;;;;5126858;27;20088;-72
2022/02/19 07:19:37;;;;;;;7.30;6.45;;;;;;;;;;5179830;27;20066;-76
2022/02/19 07:22:03;;;;;;;7.43;6.50;;;;;;;;;;5161058;27;20483;-77
2022/02/19 07:24:30;;;;;;;9.05;5.78;;;;;;;;;;5143915;27;20183;-71
2022/02/19 07:27:00;;;;;;;9.35;6.93;;;;;;;;;;5180228;27;20088;-69
2022/02/19 07:29:26;;;;;;;12.93;6.43;;;;;;;;;;5180294;27;20093;-67
2022/02/19 07:31:52;;;;;;;9.18;6.57;;;;;;;;;;5179859;27;20098;-67
2022/02/19 07:34:18;;;;;;;6.12;5.30;;;;;;;;;;5178227;27;20144;-66
2022/02/19 07:36:44;;;;;;;6.75;5.70;;;;;;;;;;5161247;27;20101;-66
2022/02/19 07:39:11;;;;;;;8.80;6.22;;;;;;;;;;5160898;27;20101;-66
2022/02/19 07:41:38;;;;;;;8.60;5.80;;;;;;;;;;5179940;27;20081;-67
2022/02/19 07:44:05;;;;;;;6.90;6.15;;;;;;;;;;5160784;27;20085;-69
2022/02/19 07:46:32;;;;;;;9.27;5.90;;;;;;;;;;5143537;27;20094;-66
2022/02/19 07:58:17;;;;;;;7.78;5.37;;;;;;;;;;5179489;27;20110;-66
2022/02/19 08:00:06;;;;;;;8.30;5.75;;;;;;;;;;5163646;27;20256;-65
2022/02/19 08:02:32;;;;;;;8.65;5.75;;;;;;;;;;5179832;27;20082;-66
2022/02/19 08:04:58;;;;;;;8.68;6.50;;;;;;;;;;5179682;27;20093;-66
2022/02/19 08:07:24;;;;;;;9.63;6.55;;;;;;;;;;5179799;27;20516;-65
2022/02/19 08:09:50;;;;;;;7.30;5.65;;;;;;;;;;5179624;27;20167;-66
2022/02/19 08:12:16;;;;;;;8.55;5.82;;;;;;;;;;5179404;27;20077;-66
2022/02/19 08:14:42;;;;;;;8.48;5.65;;;;;;;;;;5179482;27;20433;-66
2022/02/19 08:17:08;;;;;;;6.35;5.53;;;;;;;;;;5180060;27;20066;-67
2022/02/19 08:19:34;;;;;;;5.68;4.70;;;;;;;;;;5160456;27;20067;-68
2022/02/19 08:22:00;;;;;;;6.75;5.35;;;;;;;;;;5160509;27;20153;-67
2022/02/19 08:24:26;;;;;;;6.62;5.15;;;;;;;;;;5179655;27;20152;-66
2022/02/19 08:26:52;;;;;;;6.85;5.68;;;;;;;;;;5179721;27;20069;-68
2022/02/19 08:29:18;;;;;;;6.18;5.55;;;;;;;;;;5161025;27;20077;-67
2022/02/19 08:31:45;;;;;;;6.10;5.10;;;;;;;;;;5160347;27;20085;-65
2022/02/19 08:34:11;;;;;;;5.80;5.20;;;;;;;;;;5178494;27;20097;-68
2022/02/19 08:36:37;;;;;;;10.77;5.53;;;;;;;;;;5179910;27;20092;-67
2022/02/19 08:39:03;;;;;;;6.55;5.85;;;;;;;;;;5179677;27;20517;-69
2022/02/19 08:41:29;;;;;;;5.47;4.93;;;;;;;;;;5179490;27;20123;-69
2022/02/19 08:43:55;;;;;;;5.95;5.37;;;;;;;;;;5160733;27;20094;-68
2022/02/19 08:46:21;;;;;;;6.62;5.40;;;;;;;;;;5179627;27;20500;-67
2022/02/19 08:48:47;;;;;;;6.28;5.62;;;;;;;;;;5179637;27;20078;-69
2022/02/19 08:51:13;;;;;;;6.70;5.90;;;;;;;;;;5179291;27;20093;-71
2022/02/19 08:53:39;;;;;;;6.93;6.03;;;;;;;;;;5179342;27;20201;-74
2022/02/19 08:56:05;;;;;;;7.78;6.62;;;;;;;;;;5180373;27;20094;-74
2022/02/19 08:58:31;;;;;;;6.70;6.00;;;;;;;;;;5180533;27;20152;-71
2022/02/19 09:00:57;;;;;;;9.40;5.95;;;;;;;;;;5160406;27;20071;-75
2022/02/19 09:03:23;;;;;;;8.90;4.90;;;;;;;;;;5179685;27;20686;-75
2022/02/19 09:05:49;;;;;;;4.57;3.90;;;;;;;;;;5160300;27;20124;-75
2022/02/19 09:08:15;;;;;;;5.72;3.87;;;;;;;;;;5179365;27;20395;-75
2022/02/19 09:10:42;;;;;;;4.90;4.28;;;;;;;;;;5160308;27;20076;-73
2022/02/19 09:13:08;;;;;;;7.45;5.28;;;;;;;;;;5177624;27;20066;-78
2022/02/19 09:15:34;;;;;;;7.57;5.72;;;;;;;;;;5160238;27;20081;-70
2022/02/19 09:18:00;;;;;;;5.75;5.18;;;;;;;;;;5143029;27;20405;-75
2022/02/19 09:20:27;;;;;;;9.23;5.20;;;;;;;;;;5179127;27;20094;-77
2022/02/19 09:22:53;;;;;;;5.20;4.60;;;;;;;;;;5160370;27;20081;-76
2022/02/19 09:25:19;;;;;;;5.70;4.57;;;;;;;;;;5162747;27;20073;-76
2022/02/19 09:27:45;;;;;;;5.40;4.90;;;;;;;;;;5160482;27;20109;-76
2022/02/19 09:30:11;;;;;;;5.15;4.65;;;;;;;;;;5160036;27;20168;-75
2022/02/19 09:32:39;;;;;;;7.12;4.80;;;;;;;;;;5160501;27;20116;-75
2022/02/19 09:35:05;;;;;;;9.52;7.05;;;;;;;;;;5160379;27;20064;-75
2022/02/19 09:37:32;;;;;;;5.93;5.32;;;;;;;;;;5160201;27;20157;-75
2022/02/19 09:39:58;;;;;;;6.57;5.18;;;;;;;;;;5179285;27;20105;-75
2022/02/19 09:42:24;;;;;;;6.03;5.25;;;;;;;;;;5179247;27;20445;-75
2022/02/19 09:44:52;;;;;;;8.18;5.80;;;;;;;;;;5177523;27;20093;-77
2022/02/19 09:47:26;;;;;;;6.55;5.40;;;;;;;;;;5143654;27;20078;-68
2022/02/19 09:49:53;;;;;;;8.75;7.62;;;;;;;;;;5159890;27;20082;-68
2022/02/19 09:52:19;;;;;;;8.18;5.45;;;;;;;;;;5179784;27;20177;-66
2022/02/19 09:54:45;;;;;;;6.57;6.00;;;;;;;;;;5179455;27;20098;-66
2022/02/19 09:57:12;;;;;;;7.97;7.20;;;;;;;;;;5179158;27;20525;-66
2022/02/19 09:59:38;;;;;;;7.00;6.30;;;;;;;;;;5160073;27;20090;-63
2022/02/19 10:02:06;;;;;;;6.07;5.47;;;;;;;;;;5160268;27;20175;-69
2022/02/19 10:04:33;;;;;;;7.68;6.15;;;;;;;;;;5179326;27;20187;-68
2022/02/19 10:07:11;;;;;;;7.22;6.07;;;;;;;;;;5160573;27;20094;-68
2022/02/19 10:09:42;;;;;;;9.20;7.35;;;;;;;;;;5179319;27;20078;-69
2022/02/19 10:12:10;;;;;;;11.40;9.95;;;;;;;;;;5160393;27;20413;-72
2022/02/19 10:14:39;;;;;;;9.10;8.20;;;;;;;;;;5142868;27;20401;-67
2022/02/19 10:17:26;;;;;;;11.40;8.68;;;;;;;;;;5161107;27;20093;-72
2022/02/19 10:20:05;;;;;;;8.35;7.35;;;;;;;;;;5160240;27;20472;-66
2022/02/19 10:22:43;;;;;;;8.73;7.45;;;;;;;;;;5179222;27;20081;-71
2022/02/19 10:25:13;;;;;;;8.60;6.45;;;;;;;;;;5160543;27;20080;-69
2022/02/19 10:27:45;;;;;;;6.68;5.35;;;;;;;;;;5180412;27;20066;-69
2022/02/19 10:30:16;;;;;;;8.10;5.10;;;;;;;;;;5180988;27;20057;-71
2022/02/19 10:33:07;;;;;;;5.45;4.93;;;;;;;;;;5161711;27;20167;-70
2022/02/19 10:35:40;;;;;;;7.97;5.62;;;;;;;;;;5161332;27;20082;-75
2022/02/19 10:38:09;;;;;;;5.32;4.82;;;;;;;;;;5161554;27;20166;-75
2022/02/19 10:40:39;;;;;;;6.57;5.57;;;;;;;;;;5144098;27;20074;-72
2022/02/19 10:43:07;;;;;;;6.62;5.75;;;;;;;;;;5161975;27;20162;-73
2022/02/19 10:45:35;;;;;;;5.87;4.65;;;;;;;;;;5144051;27;20124;-70
2022/02/19 10:48:18;;;;;;;8.15;6.37;;;;;;;;;;5155375;27;20082;-72
2022/02/19 10:50:47;;;;;;;16.60;11.95;;;;;;;;;;5143214;27;20170;-74
2022/02/19 10:53:27;;;;;;;14.43;11.82;;;;;;;;;;5160518;27;20232;-73
2022/02/19 10:55:56;;;;;;;10.90;9.50;;;;;;;;;;5161069;27;20493;-73
2022/02/19 10:58:23;;;;;;;8.50;7.30;;;;;;;;;;5179868;27;20062;-75
2022/02/19 11:00:49;;;;;;;8.27;6.30;;;;;;;;;;5143939;27;20105;-74
2022/02/19 11:03:16;;;;;;;9.20;7.35;;;;;;;;;;5109451;27;20641;-69
2022/02/19 11:05:43;;;;;;;7.37;5.47;;;;;;;;;;5161333;27;20112;-67
2022/02/19 11:08:09;;;;;;;8.10;5.90;;;;;;;;;;5179885;27;20090;-70
2022/02/19 11:10:36;;;;;;;7.78;6.07;;;;;;;;;;5180268;27;20165;-70
2022/02/19 11:13:03;;;;;;;7.12;4.85;;;;;;;;;;5161306;27;20095;-71
2022/02/19 11:15:30;;;;;;;10.77;6.20;;;;;;;;;;5160816;27;20066;-76
2022/02/19 11:17:56;;;;;;;8.38;5.90;;;;;;;;;;5160885;27;20163;-72
2022/02/19 11:20:24;;;;;;;6.75;5.07;;;;;;;;;;5161080;27;20081;-72
2022/02/19 11:22:51;;;;;;;5.50;4.57;;;;;;;;;;5161253;27;20089;-76
2022/02/19 11:25:19;;;;;;;5.45;4.95;;;;;;;;;;5160653;27;20169;-74
2022/02/19 11:27:54;;;;;;;5.95;5.10;;;;;;;;;;5161048;27;20097;-70
2022/02/19 11:30:20;;;;;;;4.40;4.00;;;;;;;;;;5180062;27;20489;-73
2022/02/19 11:32:46;;;;;;;5.37;4.53;;;;;;;;;;5159980;27;20167;-75
2022/02/19 11:35:12;;;;;;;6.85;4.65;;;;;;;;;;5161278;27;20176;-72
2022/02/19 11:37:41;;;;;;;6.28;5.68;;;;;;;;;;5160922;27;20074;-71
2022/02/19 11:40:11;;;;;;;6.72;4.70;;;;;;;;;;5179850;27;20092;-72
2022/02/19 11:42:47;;;;;;;5.53;4.97;;;;;;;;;;5160727;27;20484;-74
2022/02/19 11:45:43;;;;;;;6.47;4.62;;;;;;;;;;5160875;27;20092;-71
2022/02/19 11:48:09;;;;;;;5.32;4.82;;;;;;;;;;5155227;27;20184;-69
2022/02/19 11:50:40;;;;;;;6.50;5.22;;;;;;;;;;5160638;27;20461;-70
2022/02/19 11:53:12;;;;;;;6.53;3.70;;;;;;;;;;5161918;27;20074;-72
2022/02/19 11:55:38;;;;;;;4.28;3.65;;;;;;;;;;5180149;27;20422;-70
2022/02/19 11:58:10;;;;;;;5.32;4.07;;;;;;;;;;5180539;27;20070;-71
2022/02/19 12:00:49;;;;;;;5.15;4.40;;;;;;;;;;5161165;27;20175;-70
2022/02/19 12:03:24;;;;;;;5.72;4.90;;;;;;;;;;5161071;27;20143;-69
2022/02/19 12:06:18;;;;;;;4.62;3.95;;;;;;;;;;5161033;27;20074;-70
2022/02/19 12:08:47;;;;;;;9.07;4.80;;;;;;;;;;5161308;27;20148;-70
2022/02/19 12:11:20;;;;;;;6.37;4.50;;;;;;;;;;5179892;27;20164;-68
2022/02/19 12:13:52;;;;;;;8.32;5.82;;;;;;;;;;5161111;27;20097;-67
2022/02/19 12:18:57;;;;;;;12.85;10.88;;;;;;;;;;5178355;27;20116;-68
2022/02/19 12:21:34;;;;;;;15.35;10.45;;;;;;;;;;5178208;27;20078;-66
2022/02/19 12:24:11;;;;;;;16.27;12.35;;;;;;;;;;5179816;27;20500;-70
2022/02/19 12:27:15;;;;;;;9.63;8.20;;;;;;;;;;5179633;27;20085;-69
2022/02/19 12:29:47;;;;;;;7.32;6.50;;;;;;;;;;5142344;27;20105;-67
2022/02/19 12:32:22;;;;;;;8.38;6.80;;;;;;;;;;5179700;27;20160;-70
2022/02/19 12:34:52;;;;;;;8.18;6.40;;;;;;;;;;5178128;27;20066;-66
2022/02/19 12:37:18;;;;;;;7.12;6.30;;;;;;;;;;5143624;27;20425;-67
2022/02/19 12:40:01;;;;;;;9.35;7.28;;;;;;;;;;5160629;27;20077;-67
2022/02/19 12:42:29;;;;;;;9.60;7.07;;;;;;;;;;5144392;27;20065;-67
2022/02/19 12:45:07;;;;;;;7.43;6.72;;;;;;;;;;5179525;27;20082;-69
2022/02/19 12:47:34;;;;;;;7.93;5.72;;;;;;;;;;5160783;27;20070;-68
2022/02/19 12:50:00;;;;;;;6.97;5.65;;;;;;;;;;5160334;27;20093;-70
2022/02/19 12:52:27;;;;;;;12.02;6.93;;;;;;;;;;5160647;27;20161;-71
2022/02/19 12:54:53;;;;;;;8.40;7.53;;;;;;;;;;5179405;27;21714;-71
2022/02/19 12:57:21;;;;;;;9.13;8.10;;;;;;;;;;5159275;27;20086;-72
2022/02/19 12:59:49;;;;;;;10.15;8.05;;;;;;;;;;5160900;27;20078;-70
2022/02/19 13:02:22;;;;;;;14.43;11.05;;;;;;;;;;5179394;27;20082;-70
2022/02/19 13:04:49;;;;;;;11.57;9.90;;;;;;;;;;5177722;27;20083;-71
2022/02/19 13:07:20;;;;;;;10.70;9.10;;;;;;;;;;5179477;27;20579;-71
2022/02/19 13:09:50;;;;;;;9.68;7.95;;;;;;;;;;5160505;27;20097;-71
2022/02/19 13:12:16;;;;;;;9.48;8.45;;;;;;;;;;5179327;27;20179;-71
2022/02/19 13:14:50;;;;;;;12.30;9.77;;;;;;;;;;5160458;27;20058;-68
2022/02/19 13:17:16;;;;;;;11.45;9.23;;;;;;;;;;5160223;27;20116;-70
2022/02/19 13:19:42;;;;;;;14.32;12.50;;;;;;;;;;5179365;27;20513;-70
2022/02/19 13:22:11;;;;;;;8.77;7.55;;;;;;;;;;5160287;27;20076;-70
2022/02/19 13:24:39;;;;;;;9.75;8.20;;;;;;;;;;5179311;27;20157;-70
2022/02/19 13:27:19;;;;;;;12.15;8.63;;;;;;;;;;5160565;27;20093;-71
2022/02/19 13:29:57;;;;;;;10.88;7.28;;;;;;;;;;5143016;27;20097;-72
2022/02/19 13:32:29;;;;;;;8.88;6.65;;;;;;;;;;5179318;27;20182;-65
2022/02/19 13:34:57;;;;;;;10.07;7.53;;;;;;;;;;5179912;27;20062;-64
2022/02/19 13:37:29;;;;;;;9.23;7.82;;;;;;;;;;5179330;27;20069;-64
2022/02/19 13:40:09;;;;;;;9.02;8.00;;;;;;;;;;5160199;27;20092;-64
2022/02/19 13:42:38;;;;;;;13.60;8.57;;;;;;;;;;5177563;27;20410;-64
2022/02/19 13:45:04;;;;;;;11.52;7.57;;;;;;;;;;5179330;27;20105;-65
2022/02/19 13:47:31;;;;;;;9.43;7.10;;;;;;;;;;5160501;27;20178;-64
2022/02/19 13:49:57;;;;;;;8.05;6.40;;;;;;;;;;5160233;27;20591;-67
2022/02/19 13:52:26;;;;;;;10.13;7.28;;;;;;;;;;5179210;27;20183;-66
2022/02/19 13:54:54;;;;;;;10.50;7.07;;;;;;;;;;5179807;27;20108;-68
2022/02/19 13:57:20;;;;;;;11.52;6.43;;;;;;;;;;5179521;27;20060;-66
2022/02/19 14:00:01;;;;;;;14.38;7.05;;;;;;;;;;5143154;27;20074;-63
2022/02/19 14:02:28;;;;;;;9.93;6.87;;;;;;;;;;5180016;27;20425;-64
2022/02/19 14:05:02;;;;;;;10.73;7.37;;;;;;;;;;5180548;27;20105;-64
2022/02/19 14:07:29;;;;;;;11.10;7.72;;;;;;;;;;5180597;27;20082;-63
2022/02/19 14:10:09;;;;;;;10.52;7.57;;;;;;;;;;5180336;27;20074;-63
2022/02/19 14:12:36;;;;;;;14.63;11.35;;;;;;;;;;5180851;27;20465;-64
2022/02/19 14:15:03;;;;;;;13.60;10.77;;;;;;;;;;5180701;27;20086;-65
2022/02/19 14:17:40;;;;;;;13.02;10.60;;;;;;;;;;5180333;27;20461;-63
2022/02/19 14:20:09;;;;;;;17.10;12.77;;;;;;;;;;5161013;27;20097;-64
2022/02/19 14:22:53;;;;;;;14.35;9.68;;;;;;;;;;5180596;27;20101;-65
2022/02/19 14:25:20;;;;;;;18.67;10.65;;;;;;;;;;5180436;27;20120;-64
2022/02/19 14:28:01;;;;;;;14.13;9.00;;;;;;;;;;5180420;27;20090;-63
2022/02/19 14:30:36;;;;;;;12.43;9.05;;;;;;;;;;5180614;27;20070;-64
2022/02/19 14:33:07;;;;;;;12.85;9.30;;;;;;;;;;5144103;27;20085;-66
2022/02/19 14:35:34;;;;;;;12.40;8.02;;;;;;;;;;5180085;27;20074;-66
2022/02/19 14:38:24;;;;;;;14.35;8.82;;;;;;;;;;5179905;27;20101;-64
2022/02/19 14:40:58;;;;;;;16.30;9.32;;;;;;;;;;5170860;27;20406;-68
2022/02/19 14:43:25;;;;;;;13.05;9.00;;;;;;;;;;5179867;27;20066;-62
2022/02/19 14:45:52;;;;;;;14.50;9.70;;;;;;;;;;5143621;27;20085;-63
2022/02/19 14:48:20;;;;;;;13.15;9.52;;;;;;;;;;5180006;27;20082;-63
2022/02/19 14:50:48;;;;;;;17.62;10.55;;;;;;;;;;5179764;27;20496;-66
2022/02/19 14:53:18;;;;;;;17.62;10.55;;;;;;;;;;5161632;27;20078;-65
2022/02/19 14:55:45;;;;;;;15.95;12.30;;;;;;;;;;5161462;27;20081;-66
2022/02/19 14:58:11;;;;;;;22.15;14.32;;;;;;;;;;5180405;27;20086;-72
2022/02/19 15:00:37;;;;;;;23.00;16.02;;;;;;;;;;5160475;27;20093;-68
2022/02/19 15:03:04;;;;;;;18.60;13.30;;;;;;;;;;5179863;27;20509;-68
2022/02/19 15:05:30;;;;;;;19.00;14.13;;;;;;;;;;5161266;27;20168;-68
2022/02/19 15:07:56;;;;;;;23.23;17.00;;;;;;;;;;5180224;27;20066;-69
2022/02/19 15:10:23;;;;;;;21.77;14.80;;;;;;;;;;5180162;27;20145;-68
2022/02/19 15:12:49;;;;;;;17.27;12.80;;;;;;;;;;5179798;27;20070;-68
2022/02/19 15:15:17;;;;;;;16.58;12.95;;;;;;;;;;5180110;27;20085;-67
2022/02/19 15:17:44;;;;;;;19.60;15.00;;;;;;;;;;5180150;27;20081;-67